Cornelia Maersk — OWWS2 — position and weather

sailwx.info

Track history (hours):
 
Tides and Currents Weather Stations Pressure Air Temp Water Temp Dewpoint Dewpoint Depression Visibility Wind Speed Wind Dir Waves Ship Positions

Cornelia Maersk

Last reported at 2017-Sep-24 07:29 UTC. Time now 2017-Sep-24 08:48 UTC.
Position N 30°36' E 122°58'.

Type: Cargo ship. MMSI: 220061000.

Date/timePositionNaut miles runAvg speedWind from/ knotsBaromVisibWave heightAir tempDewpointWater temp
2017-Sep-24 07:29N 30°36' E 122°58'1020.9
2017-Sep-24 07:00N 30°35' E 122°46'  
2017-Sep-22 00:59N 30°28' E 122°46'42 3.2
2017-Sep-21 11:51N 29°47' E 122°35'4 9.4
2017-Sep-21 11:27N 29°44' E 122°32'4 8.2
2017-Sep-21 11:00N 29°43' E 122°28'5 9.8
2017-Sep-21 10:30N 29°44' E 122°23'611.7
2017-Sep-21 10:00N 29°46' E 122°16'510.8
2017-Sep-21 09:30N 29°50' E 122°12'713.5
2017-Sep-21 09:00N 29°55' E 122°07'4 8.7
2017-Sep-21 08:29N 29°54' E 122°02'0 0.1
2017-Sep-21 08:00N 29°54' E 122°02'0 0.0
2017-Sep-21 07:30N 29°54' E 122°02'0 0.0
2017-Sep-21 07:00N 29°54' E 122°02'0 0.0
2017-Sep-21 06:30N 29°54' E 122°02'0 0.0
2017-Sep-21 06:00N 29°54' E 122°02'0 0.0
2017-Sep-21 05:31N 29°54' E 122°02'0 0.0
2017-Sep-21 05:00N 29°54' E 122°02'0 0.0
2017-Sep-21 04:24N 29°54' E 122°02'0 0.0
2017-Sep-21 04:00N 29°54' E 122°02'0 0.0
2017-Sep-21 03:27N 29°54' E 122°02'0 0.0
2017-Sep-21 03:00N 29°54' E 122°02'0 0.0
2017-Sep-21 02:29N 29°54' E 122°02'0 0.0
2017-Sep-21 02:00N 29°54' E 122°02'0 0.0
2017-Sep-21 01:26N 29°54' E 122°02'0 0.0
2017-Sep-21 00:55N 29°54' E 122°02'0 0.0
2017-Sep-21 00:28N 29°54' E 122°02'0 0.0
2017-Sep-20 23:58N 29°54' E 122°02'0 0.0
2017-Sep-20 23:28N 29°54' E 122°02'0 0.0
2017-Sep-20 22:52N 29°54' E 122°02'0 0.0
2017-Sep-20 22:28N 29°54' E 122°02'0 0.0
2017-Sep-20 21:58N 29°54' E 122°02'0 0.0
2017-Sep-20 21:23N 29°54' E 122°02'0 0.0
2017-Sep-20 20:58N 29°54' E 122°02'0 0.0
2017-Sep-20 20:31N 29°54' E 122°02'1 1.4
2017-Sep-20 19:59N 29°54' E 122°03'3 6.9
2017-Sep-20 19:30N 29°56' E 122°06'5 9.9
2017-Sep-20 18:58N 29°53' E 122°11'510.9
2017-Sep-20 18:30N 29°48' E 122°15'5 8.2
2017-Sep-20 17:56N 29°45' E 122°19'2 5.0
2017-Sep-20 17:29N 29°44' E 122°21'510.4
2017-Sep-20 16:59N 29°43' E 122°27'510.1
2017-Sep-20 16:29N 29°41' E 122°32'2412.2
2017-Sep-20 14:32N 29°17' E 122°36'2 3.7
2017-Sep-20 14:00N 29°15' E 122°36'0 1.0
2017-Sep-20 13:30N 29°15' E 122°36'0 0.8
2017-Sep-20 12:55N 29°14' E 122°36'1 1.0
2017-Sep-20 11:56N 29°14' E 122°37'409 9.5
2017-Sep-18 17:04N 23°38' E 118°17'111.1
2017-Sep-18 17:00N 23°38' E 118°17'711.4
2017-Sep-18 16:22N 23°33' E 118°10'511.4
2017-Sep-18 15:57N 23°31' E 118°06'2211.9
2017-Sep-18 14:08N 23°22' E 117°44'212.9
2017-Sep-18 13:57N 23°21' E 117°42'613.1
2017-Sep-18 13:30N 23°18' E 117°36'913.1
2017-Sep-18 12:51N 23°14' E 117°28'  
2017-Sep-15 23:08N 22°34' E 114°16'1 2.7
2017-Sep-15 22:52N 22°34' E 114°16'0 0.0
2017-Sep-15 22:21N 22°34' E 114°16'0 0.0
2017-Sep-15 21:57N 22°34' E 114°16'0 0.0
2017-Sep-15 21:27N 22°34' E 114°16'0 0.0
2017-Sep-15 19:27N 22°34' E 114°16'0 0.0
2017-Sep-15 18:57N 22°34' E 114°16'0 0.0
2017-Sep-15 18:27N 22°34' E 114°16'0 0.0
2017-Sep-15 17:57N 22°34' E 114°16'0 0.0
2017-Sep-15 16:33N 22°34' E 114°16'0 0.0
2017-Sep-15 16:21N 22°34' E 114°16'0 0.0
2017-Sep-15 15:51N 22°34' E 114°16'0 0.0
2017-Sep-15 15:27N 22°34' E 114°16'0 0.0
2017-Sep-15 14:51N 22°34' E 114°16'0 0.0
2017-Sep-15 14:21N 22°34' E 114°16'0 0.0
2017-Sep-15 12:04N 22°34' E 114°16'0 0.0
2017-Sep-15 11:51N 22°34' E 114°16'23 1.4
2017-Sep-14 19:45N 22°22' E 113°54'  
Track history (hours):
 
Tides and Currents Weather Stations Pressure Air Temp Water Temp Dewpoint Dewpoint Depression Visibility Wind Speed Wind Dir Waves Ship Positions

Cornelia Maersk

Last reported at 2017-Sep-24 07:29 UTC. Time now 2017-Sep-24 08:48 UTC.
Position N 30°36' E 122°58'.

Type: Cargo ship. MMSI: 220061000.

Date/timePositionNaut miles runAvg speedWind from/ knotsBaromVisibWave heightAir tempDewpointWater temp
2017-Sep-24 07:29N 30°36' E 122°58'1020.9
2017-Sep-24 07:00N 30°35' E 122°46'  
2017-Sep-22 00:59N 30°28' E 122°46'42 3.2
2017-Sep-21 11:51N 29°47' E 122°35'4 9.4
2017-Sep-21 11:27N 29°44' E 122°32'4 8.2
2017-Sep-21 11:00N 29°43' E 122°28'5 9.8
2017-Sep-21 10:30N 29°44' E 122°23'611.7
2017-Sep-21 10:00N 29°46' E 122°16'510.8
2017-Sep-21 09:30N 29°50' E 122°12'713.5
2017-Sep-21 09:00N 29°55' E 122°07'4 8.7
2017-Sep-21 08:29N 29°54' E 122°02'0 0.1
2017-Sep-21 08:00N 29°54' E 122°02'0 0.0
2017-Sep-21 07:30N 29°54' E 122°02'0 0.0
2017-Sep-21 07:00N 29°54' E 122°02'0 0.0
2017-Sep-21 06:30N 29°54' E 122°02'0 0.0
2017-Sep-21 06:00N 29°54' E 122°02'0 0.0
2017-Sep-21 05:31N 29°54' E 122°02'0 0.0
2017-Sep-21 05:00N 29°54' E 122°02'0 0.0
2017-Sep-21 04:24N 29°54' E 122°02'0 0.0
2017-Sep-21 04:00N 29°54' E 122°02'0 0.0
2017-Sep-21 03:27N 29°54' E 122°02'0 0.0
2017-Sep-21 03:00N 29°54' E 122°02'0 0.0
2017-Sep-21 02:29N 29°54' E 122°02'0 0.0
2017-Sep-21 02:00N 29°54' E 122°02'0 0.0
2017-Sep-21 01:26N 29°54' E 122°02'0 0.0
2017-Sep-21 00:55N 29°54' E 122°02'0 0.0
2017-Sep-21 00:28N 29°54' E 122°02'0 0.0
2017-Sep-20 23:58N 29°54' E 122°02'0 0.0
2017-Sep-20 23:28N 29°54' E 122°02'0 0.0
2017-Sep-20 22:52N 29°54' E 122°02'0 0.0
2017-Sep-20 22:28N 29°54' E 122°02'0 0.0
2017-Sep-20 21:58N 29°54' E 122°02'0 0.0
2017-Sep-20 21:23N 29°54' E 122°02'0 0.0
2017-Sep-20 20:58N 29°54' E 122°02'0 0.0
2017-Sep-20 20:31N 29°54' E 122°02'1 1.4
2017-Sep-20 19:59N 29°54' E 122°03'3 6.9
2017-Sep-20 19:30N 29°56' E 122°06'5 9.9
2017-Sep-20 18:58N 29°53' E 122°11'510.9
2017-Sep-20 18:30N 29°48' E 122°15'5 8.2
2017-Sep-20 17:56N 29°45' E 122°19'2 5.0
2017-Sep-20 17:29N 29°44' E 122°21'510.4
2017-Sep-20 16:59N 29°43' E 122°27'510.1
2017-Sep-20 16:29N 29°41' E 122°32'2412.2
2017-Sep-20 14:32N 29°17' E 122°36'2 3.7
2017-Sep-20 14:00N 29°15' E 122°36'0 1.0
2017-Sep-20 13:30N 29°15' E 122°36'0 0.8
2017-Sep-20 12:55N 29°14' E 122°36'1 1.0
2017-Sep-20 11:56N 29°14' E 122°37'409 9.5
2017-Sep-18 17:04N 23°38' E 118°17'111.1
2017-Sep-18 17:00N 23°38' E 118°17'711.4
2017-Sep-18 16:22N 23°33' E 118°10'511.4
2017-Sep-18 15:57N 23°31' E 118°06'2211.9
2017-Sep-18 14:08N 23°22' E 117°44'212.9
2017-Sep-18 13:57N 23°21' E 117°42'613.1
2017-Sep-18 13:30N 23°18' E 117°36'913.1
2017-Sep-18 12:51N 23°14' E 117°28'  
2017-Sep-15 23:08N 22°34' E 114°16'1 2.7
2017-Sep-15 22:52N 22°34' E 114°16'0 0.0
2017-Sep-15 22:21N 22°34' E 114°16'0 0.0
2017-Sep-15 21:57N 22°34' E 114°16'0 0.0
2017-Sep-15 21:27N 22°34' E 114°16'0 0.0
2017-Sep-15 19:27N 22°34' E 114°16'0 0.0
2017-Sep-15 18:57N 22°34' E 114°16'0 0.0
2017-Sep-15 18:27N 22°34' E 114°16'0 0.0
2017-Sep-15 17:57N 22°34' E 114°16'0 0.0
2017-Sep-15 16:33N 22°34' E 114°16'0 0.0
2017-Sep-15 16:21N 22°34' E 114°16'0 0.0
2017-Sep-15 15:51N 22°34' E 114°16'0 0.0
2017-Sep-15 15:27N 22°34' E 114°16'0 0.0
2017-Sep-15 14:51N 22°34' E 114°16'0 0.0
2017-Sep-15 14:21N 22°34' E 114°16'0 0.0
2017-Sep-15 12:04N 22°34' E 114°16'0 0.0
2017-Sep-15 11:51N 22°34' E 114°16'23 1.4
2017-Sep-14 19:45N 22°22' E 113°54'  

Dump ship's entire track history